sensor_id;sensor_type;location;lat;lon;timestamp;pressure;altitude;pressure_sealevel;temperature;humidity
58973;BME280;44750;52.040;7.472;2023-07-31T00:02:03;100607.84;;;16.58;0.00
58973;BME280;44750;52.040;7.472;2023-07-31T00:07:04;100640.91;;;16.63;0.00
58973;BME280;44750;52.040;7.472;2023-07-31T00:12:04;100643.72;;;16.69;0.00
58973;BME280;44750;52.040;7.472;2023-07-31T00:17:05;100642.66;;;16.70;0.00
58973;BME280;44750;52.040;7.472;2023-07-31T00:22:05;100617.75;;;16.59;0.00
58973;BME280;44750;52.040;7.472;2023-07-31T00:27:05;100605.38;;;16.41;0.00
58973;BME280;44750;52.040;7.472;2023-07-31T00:32:06;100587.56;;;16.24;0.00
58973;BME280;44750;52.040;7.472;2023-07-31T00:37:07;100585.59;;;16.17;0.00
58973;BME280;44750;52.040;7.472;2023-07-31T00:42:07;100606.09;;;16.28;0.00
58973;BME280;44750;52.040;7.472;2023-07-31T00:47:07;100612.78;;;16.26;0.00
58973;BME280;44750;52.040;7.472;2023-07-31T00:52:09;100607.50;;;16.24;0.00
58973;BME280;44750;52.040;7.472;2023-07-31T00:57:10;100627.81;;;16.36;0.00
58973;BME280;44750;52.040;7.472;2023-07-31T01:02:11;100608.63;;;16.30;0.00
58973;BME280;44750;52.040;7.472;2023-07-31T01:07:14;100612.13;;;16.24;0.00
58973;BME280;44750;52.040;7.472;2023-07-31T01:12:17;100600.00;;;16.11;0.00
58973;BME280;44750;52.040;7.472;2023-07-31T01:17:17;100605.03;;;16.08;0.00
58973;BME280;44750;52.040;7.472;2023-07-31T01:28:10;100619.22;;;16.03;0.00
58973;BME280;44750;52.040;7.472;2023-07-31T01:33:14;100625.84;;;15.94;0.00
58973;BME280;44750;52.040;7.472;2023-07-31T01:38:20;100633.84;;;15.95;0.00
58973;BME280;44750;52.040;7.472;2023-07-31T01:43:20;100646.38;;;15.90;0.00
58973;BME280;44750;52.040;7.472;2023-07-31T01:48:21;100677.16;;;15.98;0.00
58973;BME280;44750;52.040;7.472;2023-07-31T01:53:21;100682.41;;;16.00;0.00
58973;BME280;44750;52.040;7.472;2023-07-31T01:58:21;100694.19;;;16.00;0.00
58973;BME280;44750;52.040;7.472;2023-07-31T02:03:22;100699.72;;;16.07;0.00
58973;BME280;44750;52.040;7.472;2023-07-31T02:08:22;100700.78;;;16.06;0.00
58973;BME280;44750;52.040;7.472;2023-07-31T02:13:22;100700.78;;;16.06;0.00
58973;BME280;44750;52.040;7.472;2023-07-31T02:18:23;100705.47;;;16.12;0.00
58973;BME280;44750;52.040;7.472;2023-07-31T02:23:23;100687.41;;;15.96;0.00
58973;BME280;44750;52.040;7.472;2023-07-31T02:28:23;100717.63;;;16.10;0.00
58973;BME280;44750;52.040;7.472;2023-07-31T02:33:23;100732.66;;;16.20;0.00
58973;BME280;44750;52.040;7.472;2023-07-31T02:38:23;100751.22;;;16.40;0.00
58973;BME280;44750;52.040;7.472;2023-07-31T02:43:24;100758.66;;;16.46;0.00
58973;BME280;44750;52.040;7.472;2023-07-31T02:48:24;100795.19;;;16.60;0.00
58973;BME280;44750;52.040;7.472;2023-07-31T02:53:24;100801.59;;;16.67;0.00
58973;BME280;44750;52.040;7.472;2023-07-31T02:58:24;100803.66;;;16.65;0.00
58973;BME280;44750;52.040;7.472;2023-07-31T03:03:25;100825.13;;;16.68;0.00
58973;BME280;44750;52.040;7.472;2023-07-31T03:08:25;100839.75;;;16.76;0.00
58973;BME280;44750;52.040;7.472;2023-07-31T03:13:25;100858.09;;;16.82;0.00
58973;BME280;44750;52.040;7.472;2023-07-31T03:18:25;100849.16;;;16.73;0.00
58973;BME280;44750;52.040;7.472;2023-07-31T03:23:26;100857.47;;;16.80;0.00
58973;BME280;44750;52.040;7.472;2023-07-31T03:28:26;100864.03;;;16.85;0.00
58973;BME280;44750;52.040;7.472;2023-07-31T03:33:26;100868.59;;;16.78;0.00
58973;BME280;44750;52.040;7.472;2023-07-31T03:38:26;100871.13;;;16.80;0.00
58973;BME280;44750;52.040;7.472;2023-07-31T03:43:27;100866.03;;;16.77;0.00
58973;BME280;44750;52.040;7.472;2023-07-31T03:48:27;100860.56;;;16.77;0.00
58973;BME280;44750;52.040;7.472;2023-07-31T03:53:27;100844.44;;;16.67;0.00
58973;BME280;44750;52.040;7.472;2023-07-31T03:58:27;100866.31;;;16.67;0.00
58973;BME280;44750;52.040;7.472;2023-07-31T04:03:28;100854.34;;;16.68;0.00
58973;BME280;44750;52.040;7.472;2023-07-31T04:08:28;100868.31;;;16.73;0.00
58973;BME280;44750;52.040;7.472;2023-07-31T04:13:29;100865.78;;;16.71;0.00
58973;BME280;44750;52.040;7.472;2023-07-31T04:18:29;100875.63;;;16.72;0.00
58973;BME280;44750;52.040;7.472;2023-07-31T04:23:30;100856.50;;;16.72;0.00
58973;BME280;44750;52.040;7.472;2023-07-31T04:28:30;100825.59;;;16.72;0.00
58973;BME280;44750;52.040;7.472;2023-07-31T04:33:30;100795.44;;;16.65;0.00
58973;BME280;44750;52.040;7.472;2023-07-31T04:38:30;100805.63;;;16.71;0.00
58973;BME280;44750;52.040;7.472;2023-07-31T04:43:31;100788.84;;;16.75;0.00
58973;BME280;44750;52.040;7.472;2023-07-31T04:48:32;100764.88;;;16.77;0.00
58973;BME280;44750;52.040;7.472;2023-07-31T04:53:32;100735.81;;;16.69;0.00
58973;BME280;44750;52.040;7.472;2023-07-31T04:58:33;100712.44;;;16.66;0.00
58973;BME280;44750;52.040;7.472;2023-07-31T05:03:33;100701.78;;;16.71;0.00
58973;BME280;44750;52.040;7.472;2023-07-31T05:08:33;100688.75;;;16.74;0.00
58973;BME280;44750;52.040;7.472;2023-07-31T05:13:33;100661.59;;;16.72;0.00
58973;BME280;44750;52.040;7.472;2023-07-31T05:18:34;100632.56;;;16.71;0.00
58973;BME280;44750;52.040;7.472;2023-07-31T05:23:34;100618.47;;;16.67;0.00
58973;BME280;44750;52.040;7.472;2023-07-31T05:28:35;100592.25;;;16.73;0.00
58973;BME280;44750;52.040;7.472;2023-07-31T05:33:35;100578.31;;;16.68;0.00
58973;BME280;44750;52.040;7.472;2023-07-31T05:38:35;100575.19;;;16.71;0.00
58973;BME280;44750;52.040;7.472;2023-07-31T05:43:36;100566.59;;;16.74;0.00
58973;BME280;44750;52.040;7.472;2023-07-31T05:48:36;100546.41;;;16.75;0.00
58973;BME280;44750;52.040;7.472;2023-07-31T05:53:36;100527.94;;;16.77;0.00
58973;BME280;44750;52.040;7.472;2023-07-31T05:58:36;100510.25;;;16.73;0.00
58973;BME280;44750;52.040;7.472;2023-07-31T06:03:37;100479.94;;;16.68;0.00
58973;BME280;44750;52.040;7.472;2023-07-31T06:08:37;100491.09;;;16.73;0.00
58973;BME280;44750;52.040;7.472;2023-07-31T06:13:37;100503.97;;;16.79;0.00
58973;BME280;44750;52.040;7.472;2023-07-31T06:18:37;100496.16;;;16.76;0.00
58973;BME280;44750;52.040;7.472;2023-07-31T06:23:37;100521.44;;;16.78;0.00
58973;BME280;44750;52.040;7.472;2023-07-31T06:28:38;100526.69;;;16.80;0.00
58973;BME280;44750;52.040;7.472;2023-07-31T06:33:38;100574.44;;;17.05;0.00
58973;BME280;44750;52.040;7.472;2023-07-31T06:38:38;100568.75;;;17.07;0.00
58973;BME280;44750;52.040;7.472;2023-07-31T06:43:38;100564.34;;;17.06;0.00
58973;BME280;44750;52.040;7.472;2023-07-31T06:48:38;100571.69;;;17.05;0.00
58973;BME280;44750;52.040;7.472;2023-07-31T06:53:39;100596.41;;;17.19;0.00
58973;BME280;44750;52.040;7.472;2023-07-31T06:58:39;100573.69;;;17.18;0.00
58973;BME280;44750;52.040;7.472;2023-07-31T07:03:39;100572.00;;;17.17;0.00
58973;BME280;44750;52.040;7.472;2023-07-31T07:08:39;100575.13;;;17.14;0.00
58973;BME280;44750;52.040;7.472;2023-07-31T07:13:40;100551.28;;;17.01;0.00
58973;BME280;44750;52.040;7.472;2023-07-31T07:18:40;100576.59;;;17.10;0.00
58973;BME280;44750;52.040;7.472;2023-07-31T07:23:40;100594.66;;;17.11;0.00
58973;BME280;44750;52.040;7.472;2023-07-31T07:28:40;100623.34;;;17.15;0.00
58973;BME280;44750;52.040;7.472;2023-07-31T07:33:40;100635.09;;;17.16;0.00
58973;BME280;44750;52.040;7.472;2023-07-31T07:38:41;100659.56;;;17.24;0.00
58973;BME280;44750;52.040;7.472;2023-07-31T07:43:41;100672.25;;;17.32;0.00
58973;BME280;44750;52.040;7.472;2023-07-31T07:48:41;100686.97;;;17.31;0.00
58973;BME280;44750;52.040;7.472;2023-07-31T07:53:41;100717.03;;;17.52;0.00
58973;BME280;44750;52.040;7.472;2023-07-31T07:58:42;100722.38;;;17.61;0.00
58973;BME280;44750;52.040;7.472;2023-07-31T08:03:42;100722.13;;;17.55;0.00
58973;BME280;44750;52.040;7.472;2023-07-31T08:08:42;100736.94;;;17.68;0.00
58973;BME280;44750;52.040;7.472;2023-07-31T08:13:43;100747.44;;;17.64;0.00
58973;BME280;44750;52.040;7.472;2023-07-31T08:18:43;100760.09;;;17.65;0.00
58973;BME280;44750;52.040;7.472;2023-07-31T08:23:43;100747.00;;;17.61;0.00
58973;BME280;44750;52.040;7.472;2023-07-31T08:28:43;100784.56;;;17.74;0.00
58973;BME280;44750;52.040;7.472;2023-07-31T08:33:44;100751.81;;;17.59;0.00
58973;BME280;44750;52.040;7.472;2023-07-31T08:38:45;100754.31;;;17.53;0.00
58973;BME280;44750;52.040;7.472;2023-07-31T08:43:46;100806.97;;;17.84;0.00
58973;BME280;44750;52.040;7.472;2023-07-31T08:48:46;100785.03;;;17.77;0.00
58973;BME280;44750;52.040;7.472;2023-07-31T08:53:47;100826.13;;;18.05;0.00
58973;BME280;44750;52.040;7.472;2023-07-31T08:58:49;100831.66;;;18.12;0.00
58973;BME280;44750;52.040;7.472;2023-07-31T09:03:51;100808.41;;;18.01;0.00
58973;BME280;44750;52.040;7.472;2023-07-31T09:08:52;100782.13;;;17.85;0.00
58973;BME280;44750;52.040;7.472;2023-07-31T09:13:53;100767.31;;;17.73;0.00
58973;BME280;44750;52.040;7.472;2023-07-31T09:18:57;100799.66;;;17.91;0.00
58973;BME280;44750;52.040;7.472;2023-07-31T09:23:57;100795.81;;;17.85;0.00
58973;BME280;44750;52.040;7.472;2023-07-31T09:28:59;100786.72;;;17.78;0.00
58973;BME280;44750;52.040;7.472;2023-07-31T09:33:59;100808.34;;;17.95;0.00
58973;BME280;44750;52.040;7.472;2023-07-31T09:39:02;100796.50;;;17.87;0.00
58973;BME280;44750;52.040;7.472;2023-07-31T09:44:03;100782.91;;;17.79;0.00
58973;BME280;44750;52.040;7.472;2023-07-31T09:49:13;100797.59;;;17.93;0.00
58973;BME280;44750;52.040;7.472;2023-07-31T09:54:16;100798.69;;;17.99;0.00
58973;BME280;44750;52.040;7.472;2023-07-31T09:59:18;100835.63;;;18.38;0.00
58973;BME280;44750;52.040;7.472;2023-07-31T10:04:21;100765.66;;;18.07;0.00
58973;BME280;44750;52.040;7.472;2023-07-31T10:09:25;100774.19;;;18.26;0.00
58973;BME280;44750;52.040;7.472;2023-07-31T10:14:27;100741.06;;;18.20;0.00
58973;BME280;44750;52.040;7.472;2023-07-31T10:19:29;100744.72;;;18.28;0.00
58973;BME280;44750;52.040;7.472;2023-07-31T10:24:31;100691.69;;;18.07;0.00
58973;BME280;44750;52.040;7.472;2023-07-31T10:29:31;100691.91;;;18.05;0.00
58973;BME280;44750;52.040;7.472;2023-07-31T10:34:36;100689.63;;;18.09;0.00
58973;BME280;44750;52.040;7.472;2023-07-31T10:39:37;100699.97;;;18.20;0.00
58973;BME280;44750;52.040;7.472;2023-07-31T10:44:38;100654.56;;;17.98;0.00
58973;BME280;44750;52.040;7.472;2023-07-31T10:49:46;100699.84;;;18.29;0.00
58973;BME280;44750;52.040;7.472;2023-07-31T10:54:49;100707.88;;;18.37;0.00
58973;BME280;44750;52.040;7.472;2023-07-31T11:00:18;100684.66;;;18.33;0.00
58973;BME280;44750;52.040;7.472;2023-07-31T11:05:19;100685.28;;;18.35;0.00
58973;BME280;44750;52.040;7.472;2023-07-31T11:10:19;100662.28;;;18.23;0.00
58973;BME280;44750;52.040;7.472;2023-07-31T11:15:19;100656.16;;;18.20;0.00
58973;BME280;44750;52.040;7.472;2023-07-31T11:20:20;100660.13;;;18.18;0.00
58973;BME280;44750;52.040;7.472;2023-07-31T11:25:22;100657.22;;;18.19;0.00
58973;BME280;44750;52.040;7.472;2023-07-31T11:30:22;100681.94;;;18.33;0.00
58973;BME280;44750;52.040;7.472;2023-07-31T11:35:23;100690.53;;;18.30;0.00
58973;BME280;44750;52.040;7.472;2023-07-31T11:40:23;100679.16;;;18.26;0.00
58973;BME280;44750;52.040;7.472;2023-07-31T11:45:27;100694.75;;;18.32;0.00
58973;BME280;44750;52.040;7.472;2023-07-31T11:50:27;100697.13;;;18.35;0.00
58973;BME280;44750;52.040;7.472;2023-07-31T11:55:28;100707.47;;;18.47;0.00
58973;BME280;44750;52.040;7.472;2023-07-31T12:00:28;100682.56;;;18.35;0.00
58973;BME280;44750;52.040;7.472;2023-07-31T12:05:29;100684.47;;;18.41;0.00
58973;BME280;44750;52.040;7.472;2023-07-31T12:10:32;100693.16;;;18.51;0.00
58973;BME280;44750;52.040;7.472;2023-07-31T12:20:41;100704.81;;;18.80;0.00
58973;BME280;44750;52.040;7.472;2023-07-31T12:25:42;100681.00;;;18.74;0.00
58973;BME280;44750;52.040;7.472;2023-07-31T12:30:42;100648.09;;;18.74;0.00
58973;BME280;44750;52.040;7.472;2023-07-31T12:35:46;100596.59;;;18.63;0.00
58973;BME280;44750;52.040;7.472;2023-07-31T12:40:47;100564.53;;;18.57;0.00
58973;BME280;44750;52.040;7.472;2023-07-31T12:45:47;100559.91;;;18.70;0.00
58973;BME280;44750;52.040;7.472;2023-07-31T12:50:48;100529.75;;;18.57;0.00
58973;BME280;44750;52.040;7.472;2023-07-31T12:55:48;100519.41;;;18.66;0.00
58973;BME280;44750;52.040;7.472;2023-07-31T13:00:48;100511.38;;;18.78;0.00
58973;BME280;44750;52.040;7.472;2023-07-31T13:05:48;100494.94;;;18.71;0.00
58973;BME280;44750;52.040;7.472;2023-07-31T13:10:49;100500.00;;;18.87;0.00
58973;BME280;44750;52.040;7.472;2023-07-31T13:15:50;100483.56;;;18.94;0.00
58973;BME280;44750;52.040;7.472;2023-07-31T13:20:50;100443.69;;;18.92;0.00
58973;BME280;44750;52.040;7.472;2023-07-31T13:25:50;100426.34;;;18.98;0.00
58973;BME280;44750;52.040;7.472;2023-07-31T13:30:50;100427.19;;;19.05;0.00
58973;BME280;44750;52.040;7.472;2023-07-31T13:35:51;100400.78;;;19.11;0.00
58973;BME280;44750;52.040;7.472;2023-07-31T13:40:51;100373.09;;;19.19;0.00
58973;BME280;44750;52.040;7.472;2023-07-31T13:45:51;100360.44;;;19.57;0.00
58973;BME280;44750;52.040;7.472;2023-07-31T13:50:51;100316.84;;;19.67;0.00
58973;BME280;44750;52.040;7.472;2023-07-31T13:55:51;100288.91;;;19.77;0.00
58973;BME280;44750;52.040;7.472;2023-07-31T14:00:52;100284.66;;;20.06;0.00
58973;BME280;44750;52.040;7.472;2023-07-31T14:05:52;100201.84;;;19.84;0.00
58973;BME280;44750;52.040;7.472;2023-07-31T14:10:52;100214.44;;;20.29;0.00
58973;BME280;44750;52.040;7.472;2023-07-31T14:15:52;100149.56;;;20.28;0.00
58973;BME280;44750;52.040;7.472;2023-07-31T14:20:53;100092.09;;;20.26;0.00
58973;BME280;44750;52.040;7.472;2023-07-31T14:25:53;100077.28;;;20.39;0.00
58973;BME280;44750;52.040;7.472;2023-07-31T14:30:53;100018.59;;;20.33;0.00
58973;BME280;44750;52.040;7.472;2023-07-31T14:35:54;99980.09;;;20.21;0.00
58973;BME280;44750;52.040;7.472;2023-07-31T14:40:54;99954.16;;;20.17;0.00
58973;BME280;44750;52.040;7.472;2023-07-31T14:45:54;99925.97;;;20.10;0.00
58973;BME280;44750;52.040;7.472;2023-07-31T14:50:54;99921.31;;;20.11;0.00
58973;BME280;44750;52.040;7.472;2023-07-31T14:55:55;99897.63;;;19.98;0.00
58973;BME280;44750;52.040;7.472;2023-07-31T15:00:55;99898.13;;;19.76;0.00
58973;BME280;44750;52.040;7.472;2023-07-31T15:05:55;99906.75;;;19.49;0.00
58973;BME280;44750;52.040;7.472;2023-07-31T15:10:55;99928.94;;;19.48;0.00
58973;BME280;44750;52.040;7.472;2023-07-31T15:15:56;99951.44;;;19.38;0.00
58973;BME280;44750;52.040;7.472;2023-07-31T15:20:56;99968.50;;;19.40;0.00
58973;BME280;44750;52.040;7.472;2023-07-31T15:25:56;99974.69;;;19.35;0.00
58973;BME280;44750;52.040;7.472;2023-07-31T15:30:56;99983.53;;;19.37;0.00
58973;BME280;44750;52.040;7.472;2023-07-31T15:36:02;100024.00;;;19.42;0.00
58973;BME280;44750;52.040;7.472;2023-07-31T15:41:02;100004.00;;;19.16;0.00
58973;BME280;44750;52.040;7.472;2023-07-31T15:46:02;100041.53;;;19.23;0.00
58973;BME280;44750;52.040;7.472;2023-07-31T15:51:03;100054.53;;;19.09;0.00
58973;BME280;44750;52.040;7.472;2023-07-31T15:56:03;100072.28;;;19.06;0.00
58973;BME280;44750;52.040;7.472;2023-07-31T16:01:03;100093.53;;;19.11;0.00
58973;BME280;44750;52.040;7.472;2023-07-31T16:06:04;100110.63;;;19.13;0.00
58973;BME280;44750;52.040;7.472;2023-07-31T16:11:04;100119.69;;;19.13;0.00
58973;BME280;44750;52.040;7.472;2023-07-31T16:16:04;100107.16;;;18.99;0.00
58973;BME280;44750;52.040;7.472;2023-07-31T16:21:05;100109.78;;;18.80;0.00
58973;BME280;44750;52.040;7.472;2023-07-31T16:26:05;100121.66;;;18.74;0.00
58973;BME280;44750;52.040;7.472;2023-07-31T16:31:05;100170.94;;;18.87;0.00
58973;BME280;44750;52.040;7.472;2023-07-31T16:36:05;100167.16;;;18.82;0.00
58973;BME280;44750;52.040;7.472;2023-07-31T16:41:06;100166.19;;;18.69;0.00
58973;BME280;44750;52.040;7.472;2023-07-31T16:46:06;100187.66;;;18.72;0.00
58973;BME280;44750;52.040;7.472;2023-07-31T16:51:06;100186.63;;;18.67;0.00
58973;BME280;44750;52.040;7.472;2023-07-31T16:56:06;100197.63;;;18.60;0.00
58973;BME280;44750;52.040;7.472;2023-07-31T17:01:07;100208.19;;;18.57;0.00
58973;BME280;44750;52.040;7.472;2023-07-31T17:06:07;100207.59;;;18.54;0.00
58973;BME280;44750;52.040;7.472;2023-07-31T17:11:07;100225.09;;;18.53;0.00
58973;BME280;44750;52.040;7.472;2023-07-31T17:16:07;100257.13;;;18.60;0.00
58973;BME280;44750;52.040;7.472;2023-07-31T17:21:07;100239.47;;;18.42;0.00
58973;BME280;44750;52.040;7.472;2023-07-31T17:26:08;100247.03;;;18.47;0.00
58973;BME280;44750;52.040;7.472;2023-07-31T17:31:08;100246.22;;;18.40;0.00
58973;BME280;44750;52.040;7.472;2023-07-31T17:36:08;100237.59;;;18.36;0.00
58973;BME280;44750;52.040;7.472;2023-07-31T17:41:08;100245.00;;;18.29;0.00
58973;BME280;44750;52.040;7.472;2023-07-31T17:46:09;100253.59;;;18.39;0.00
58973;BME280;44750;52.040;7.472;2023-07-31T17:51:09;100253.22;;;18.35;0.00
58973;BME280;44750;52.040;7.472;2023-07-31T17:56:09;100249.22;;;18.25;0.00
58973;BME280;44750;52.040;7.472;2023-07-31T18:01:09;100262.53;;;18.21;0.00
58973;BME280;44750;52.040;7.472;2023-07-31T18:06:10;100275.19;;;18.15;0.00
58973;BME280;44750;52.040;7.472;2023-07-31T18:11:10;100292.66;;;18.14;0.00
58973;BME280;44750;52.040;7.472;2023-07-31T18:16:10;100296.44;;;18.20;0.00
58973;BME280;44750;52.040;7.472;2023-07-31T18:21:10;100293.06;;;18.11;0.00
58973;BME280;44750;52.040;7.472;2023-07-31T18:26:11;100279.59;;;18.03;0.00
58973;BME280;44750;52.040;7.472;2023-07-31T18:31:11;100288.88;;;17.95;0.00
58973;BME280;44750;52.040;7.472;2023-07-31T18:36:11;100307.44;;;17.93;0.00
58973;BME280;44750;52.040;7.472;2023-07-31T18:41:11;100329.56;;;17.98;0.00
58973;BME280;44750;52.040;7.472;2023-07-31T18:46:11;100342.81;;;18.01;0.00
58973;BME280;44750;52.040;7.472;2023-07-31T18:51:12;100331.25;;;17.93;0.00
58973;BME280;44750;52.040;7.472;2023-07-31T18:56:12;100348.06;;;17.96;0.00
58973;BME280;44750;52.040;7.472;2023-07-31T19:01:12;100355.03;;;17.92;0.00
58973;BME280;44750;52.040;7.472;2023-07-31T19:06:12;100342.13;;;17.86;0.00
58973;BME280;44750;52.040;7.472;2023-07-31T19:11:13;100356.69;;;17.86;0.00
58973;BME280;44750;52.040;7.472;2023-07-31T19:16:13;100366.59;;;17.87;0.00
58973;BME280;44750;52.040;7.472;2023-07-31T19:21:14;100375.19;;;17.84;0.00
58973;BME280;44750;52.040;7.472;2023-07-31T19:26:14;100388.75;;;17.93;0.00
58973;BME280;44750;52.040;7.472;2023-07-31T19:31:14;100380.91;;;17.89;0.00
58973;BME280;44750;52.040;7.472;2023-07-31T19:36:14;100385.34;;;17.91;0.00
58973;BME280;44750;52.040;7.472;2023-07-31T19:41:15;100391.50;;;17.93;0.00
58973;BME280;44750;52.040;7.472;2023-07-31T19:46:15;100412.31;;;18.07;0.00
58973;BME280;44750;52.040;7.472;2023-07-31T19:51:15;100382.19;;;17.94;0.00
58973;BME280;44750;52.040;7.472;2023-07-31T19:56:15;100375.84;;;17.86;0.00
58973;BME280;44750;52.040;7.472;2023-07-31T20:01:15;100405.31;;;17.91;0.00
58973;BME280;44750;52.040;7.472;2023-07-31T20:06:16;100397.31;;;17.89;0.00
58973;BME280;44750;52.040;7.472;2023-07-31T20:11:16;100411.88;;;17.90;0.00
58973;BME280;44750;52.040;7.472;2023-07-31T20:16:17;100414.00;;;17.95;0.00
58973;BME280;44750;52.040;7.472;2023-07-31T20:21:17;100415.22;;;17.85;0.00
58973;BME280;44750;52.040;7.472;2023-07-31T20:26:17;100442.88;;;17.97;0.00
58973;BME280;44750;52.040;7.472;2023-07-31T20:31:17;100449.00;;;18.06;0.00
58973;BME280;44750;52.040;7.472;2023-07-31T20:36:18;100435.72;;;18.03;0.00
58973;BME280;44750;52.040;7.472;2023-07-31T20:41:18;100420.13;;;17.97;0.00
58973;BME280;44750;52.040;7.472;2023-07-31T20:46:18;100393.97;;;17.87;0.00
58973;BME280;44750;52.040;7.472;2023-07-31T20:51:18;100362.16;;;17.80;0.00
58973;BME280;44750;52.040;7.472;2023-07-31T20:56:19;100346.78;;;17.72;0.00
58973;BME280;44750;52.040;7.472;2023-07-31T21:01:19;100321.31;;;17.71;0.00
58973;BME280;44750;52.040;7.472;2023-07-31T21:06:19;100297.06;;;17.75;0.00
58973;BME280;44750;52.040;7.472;2023-07-31T21:11:20;100274.13;;;17.76;0.00
58973;BME280;44750;52.040;7.472;2023-07-31T21:16:20;100262.34;;;17.82;0.00
58973;BME280;44750;52.040;7.472;2023-07-31T21:21:29;100250.13;;;17.85;0.00
58973;BME280;44750;52.040;7.472;2023-07-31T21:26:29;100233.69;;;17.85;0.00
58973;BME280;44750;52.040;7.472;2023-07-31T21:31:29;100199.78;;;17.79;0.00
58973;BME280;44750;52.040;7.472;2023-07-31T21:36:30;100182.75;;;17.77;0.00
58973;BME280;44750;52.040;7.472;2023-07-31T21:41:30;100156.41;;;17.76;0.00
58973;BME280;44750;52.040;7.472;2023-07-31T21:46:30;100147.75;;;17.79;0.00
58973;BME280;44750;52.040;7.472;2023-07-31T21:51:30;100126.75;;;17.73;0.00
58973;BME280;44750;52.040;7.472;2023-07-31T21:56:31;100092.25;;;17.59;0.00
58973;BME280;44750;52.040;7.472;2023-07-31T22:01:31;100075.59;;;17.67;0.00
58973;BME280;44750;52.040;7.472;2023-07-31T22:06:31;100054.75;;;17.66;0.00
58973;BME280;44750;52.040;7.472;2023-07-31T22:11:32;100040.00;;;17.67;0.00
58973;BME280;44750;52.040;7.472;2023-07-31T22:16:32;99997.09;;;17.61;0.00
58973;BME280;44750;52.040;7.472;2023-07-31T22:21:32;99970.16;;;17.58;0.00
58973;BME280;44750;52.040;7.472;2023-07-31T22:26:32;99976.22;;;17.66;0.00
58973;BME280;44750;52.040;7.472;2023-07-31T22:31:33;99946.13;;;17.66;0.00
58973;BME280;44750;52.040;7.472;2023-07-31T22:36:33;99927.22;;;17.58;0.00
58973;BME280;44750;52.040;7.472;2023-07-31T22:41:33;99919.63;;;17.60;0.00
58973;BME280;44750;52.040;7.472;2023-07-31T22:46:33;99925.50;;;17.64;0.00
58973;BME280;44750;52.040;7.472;2023-07-31T22:51:34;99907.59;;;17.68;0.00
58973;BME280;44750;52.040;7.472;2023-07-31T22:56:34;99899.59;;;17.66;0.00
58973;BME280;44750;52.040;7.472;2023-07-31T23:01:34;99898.38;;;17.62;0.00
58973;BME280;44750;52.040;7.472;2023-07-31T23:06:34;99892.03;;;17.62;0.00
58973;BME280;44750;52.040;7.472;2023-07-31T23:11:34;99893.13;;;17.61;0.00
58973;BME280;44750;52.040;7.472;2023-07-31T23:16:35;99895.22;;;17.59;0.00
58973;BME280;44750;52.040;7.472;2023-07-31T23:21:35;99869.59;;;17.53;0.00
58973;BME280;44750;52.040;7.472;2023-07-31T23:26:35;99876.28;;;17.57;0.00
58973;BME280;44750;52.040;7.472;2023-07-31T23:31:35;99839.72;;;17.51;0.00
58973;BME280;44750;52.040;7.472;2023-07-31T23:36:36;99849.75;;;17.58;0.00
58973;BME280;44750;52.040;7.472;2023-07-31T23:41:36;99847.47;;;17.54;0.00
58973;BME280;44750;52.040;7.472;2023-07-31T23:46:36;99811.53;;;17.44;0.00
58973;BME280;44750;52.040;7.472;2023-07-31T23:51:36;99806.75;;;17.40;0.00
58973;BME280;44750;52.040;7.472;2023-07-31T23:56:39;99788.41;;;17.40;0.00
